Garden Grove, Iowa
Current Conditions -  °F | °C
As of 11:35 AM on Saturday 25 Oct 2014 (Local Time) from KI75 Reporting Station
Clear Clear  
Wind Chill: 67°   Ceiling: Unl
Heat Index: 67°   Visibility: 10mi
Dew Point: 42°   Wind: 7mph
Humidity: 39%   Direction: 40°NE
Pressure: 30.1"   Gusts: NA
Location:  40.83°N, 93.61°W
Report Text: KI75 251635Z AUTO 04006KT 010V070 10SM CLR 20/05 A3010 RMK AO2 T01960054
Loading
Personal Weather Stations






























Interactive Weather Map
Tropical Storm Tracking
New forecast layout! Learn more

10-Day Weather Forecast

Advertisements
Track Severe Weather on mobile